Maersk Dayton — DDSC2 — position and weather

sailwx.info

Track history (hours):
 
Tides and Currents Weather Stations Pressure Air Temp Water Temp Dewpoint Dewpoint Depression Visibility Wind Speed Wind Dir Waves Ship Positions

Maersk Dayton

Last reported at 2015-Jan-31 14:00 UTC. Time now 2015-Jan-31 16:16 UTC.
Position N 44°12' W 015°12'.

Length 281 m; beam 32.2 m; draft 12.5 m.

Type: Ship (hazmat cat A). MMSI: 218024000.

Wind from 350 at 22 knots

Waves 3.5 meters (11 feet), 3 second period

Barometer 1019.0 mb
Air temperature 12.3 ° C
Visibility: greater than 5.4 NM
Dewpoint -2.3 ° C
Water temperature 12.5 ° C

Date/timePositionNaut miles runAvg speedWind from/ knotsBaromVisibWave heightAir tempDewpointWater temp
2015-Jan-31 14:00N 44°12' W 015°12'5217.4 350 / 221019.0 5.4 3.512.3-2.312.5
2015-Jan-31 11:00N 44°42' W 014°12'22317.2 310 / 301016.0 5.4 3.510.5 1.912.5
2015-Jan-30 22:00N 46°48' W 009°48'36415.3 310 / 30995.5 5.4 3.510.0 2.611.7
2015-Jan-29 22:17N 50°09' W 002°10'1814.2
2015-Jan-29 21:00N 50°06' W 001°42'3523.5 290 / 40980.5 5.4 4.0 6.5-0.6 9.7
2015-Jan-29 19:29N 50°19' W 000°50'1717.6
2015-Jan-29 18:29N 50°23' W 000°24'1816.9
2015-Jan-29 17:27N 50°28' E 000°03'1516.5
2015-Jan-29 16:33N 50°33' E 000°25'1716.9
2015-Jan-29 15:34N 50°42' E 000°47'1818.0
2015-Jan-29 14:33N 50°53' E 001°09'1615.8
2015-Jan-29 13:33N 51°06' E 001°23'1313.2
2015-Jan-29 12:34N 51°12' E 001°43'1717.1
2015-Jan-29 11:34N 51°25' E 001°59'1716.5
2015-Jan-29 10:33N 51°22' E 002°25'1616.0
2015-Jan-29 09:33N 51°25' E 002°50'1515.0
2015-Jan-29 08:34N 51°25' E 003°14'1414.1
2015-Jan-29 07:33N 51°26' E 003°37'6 6.4
2015-Jan-29 06:34N 51°22' E 003°45'10 9.7
2015-Jan-29 05:33N 51°26' E 003°59'10 9.5
2015-Jan-29 04:33N 51°22' E 004°13'5 4.9
2015-Jan-29 03:32N 51°18' E 004°16'0 0.0
2015-Jan-29 02:32N 51°18' E 004°16'0 0.0
2015-Jan-29 01:32N 51°18' E 004°16'0 0.0
2015-Jan-29 00:23N 51°18' E 004°16'0 0.0
2015-Jan-28 23:30N 51°18' E 004°16'0 0.0
2015-Jan-28 22:22N 51°18' E 004°16'0 0.0
2015-Jan-28 21:31N 51°18' E 004°16'0 0.0
2015-Jan-28 20:32N 51°18' E 004°16'0 0.0
2015-Jan-28 19:31N 51°18' E 004°16'0 0.0
2015-Jan-28 18:31N 51°18' E 004°16'0 0.0
2015-Jan-28 17:24N 51°18' E 004°16'0 0.0
2015-Jan-28 16:31N 51°18' E 004°16'0 0.0
2015-Jan-28 15:31N 51°18' E 004°16'0 0.0
2015-Jan-28 14:33N 51°18' E 004°16'0 0.0
2015-Jan-28 13:31N 51°18' E 004°16'0 0.0
2015-Jan-28 12:31N 51°18' E 004°16'0 0.0
2015-Jan-28 11:26N 51°18' E 004°16'0 0.0
2015-Jan-28 10:33N 51°18' E 004°16'0 0.0
2015-Jan-28 09:33N 51°18' E 004°16'0 0.0
2015-Jan-28 08:33N 51°18' E 004°16'0 0.0
2015-Jan-28 07:33N 51°18' E 004°16'7 6.9
2015-Jan-28 06:33N 51°24' E 004°11'8 8.4
2015-Jan-28 05:33N 51°24' E 003°57'10 9.5
2015-Jan-28 04:34N 51°25' E 003°42'1010.0
2015-Jan-28 03:33N 51°25' E 003°26'1111.0
2015-Jan-28 02:33N 51°24' E 003°09'9 9.5
2015-Jan-28 01:33N 51°22' E 002°54'8 7.9
2015-Jan-28 00:33N 51°24' E 002°41'1 1.4
2015-Jan-27 23:31N 51°25' E 002°40'0 0.0
2015-Jan-27 22:31N 51°25' E 002°40'0 0.0
2015-Jan-27 21:31N 51°25' E 002°40'0 0.0
2015-Jan-27 20:31N 51°25' E 002°40'0 0.0
2015-Jan-27 19:31N 51°25' E 002°40'0 0.0
2015-Jan-27 18:31N 51°25' E 002°40'0 0.0
2015-Jan-27 17:28N 51°25' E 002°40'0 0.1
2015-Jan-27 16:25N 51°25' E 002°40'0 0.1
2015-Jan-27 15:31N 51°25' E 002°40'0 0.1
2015-Jan-27 14:31N 51°25' E 002°40'0 0.0
2015-Jan-27 13:31N 51°25' E 002°40'0 0.0
2015-Jan-27 12:31N 51°25' E 002°40'0 0.0
2015-Jan-27 11:31N 51°25' E 002°40'0 0.1
2015-Jan-27 10:31N 51°25' E 002°40'0 0.0
2015-Jan-27 09:31N 51°25' E 002°40'0 0.1
2015-Jan-27 08:28N 51°25' E 002°40'0 0.1
2015-Jan-27 07:31N 51°25' E 002°40'1 0.6
2015-Jan-27 06:31N 51°25' E 002°41'7 6.7
2015-Jan-27 05:31N 51°22' E 002°31'1111.4
2015-Jan-27 04:33N 51°18' E 002°15'1110.6
2015-Jan-27 03:34N 51°22' E 001°59'1211.7
2015-Jan-27 02:33N 51°32' E 001°50'1312.6
2015-Jan-27 01:34N 51°45' E 001°44'8 8.4
2015-Jan-27 00:33N 51°51' E 001°35'1111.2
2015-Jan-26 23:33N 51°41' E 001°27'1615.7
2015-Jan-26 22:33N 51°32' E 001°06'1716.8
2015-Jan-26 21:33N 51°30' E 000°39'6 5.8
2015-Jan-26 20:33N 51°30' E 000°30'0 0.0
2015-Jan-26 19:33N 51°30' E 000°30'0 0.0
2015-Jan-26 18:33N 51°30' E 000°30'0 0.0
2015-Jan-26 17:33N 51°30' E 000°30'0 0.0
2015-Jan-26 16:34N 51°30' E 000°30'0 0.0
2015-Jan-26 15:32N 51°30' E 000°30'0 0.0
2015-Jan-26 14:33N 51°30' E 000°30'0 0.0
2015-Jan-26 13:33N 51°30' E 000°30'0 0.0
2015-Jan-26 12:33N 51°30' E 000°30'0 0.0
2015-Jan-26 11:30N 51°30' E 000°30'0 0.0
2015-Jan-26 10:32N 51°30' E 000°30'0 0.0
2015-Jan-26 09:32N 51°30' E 000°30'0 0.0
2015-Jan-26 08:34N 51°30' E 000°30'0 0.0
2015-Jan-26 07:34N 51°30' E 000°30'0 0.0
2015-Jan-26 06:34N 51°30' E 000°30'2 1.6
2015-Jan-26 05:34N 51°30' E 000°32'1010.2
2015-Jan-26 04:33N 51°29' E 000°49'1514.8
2015-Jan-26 03:33N 51°34' E 001°11'1716.8
2015-Jan-26 02:33N 51°45' E 001°31'1110.7
2015-Jan-26 01:33N 51°53' E 001°43'1110.9
2015-Jan-26 00:32N 52°02' E 001°54'1212.0
2015-Jan-25 23:33N 52°10' E 002°07'1711.4
2015-Jan-25 22:04N 52°23' E 002°26'612.0
2015-Jan-25 21:33N 52°27' E 002°32'5710.7
2015-Jan-25 16:14N 52°56' E 003°53'812.0
2015-Jan-25 15:33N 53°01' E 004°04'1212.1
2015-Jan-25 14:33N 53°08' E 004°21'1812.2
2015-Jan-25 13:07N 53°24' E 004°34'611.5
2015-Jan-25 12:33N 53°29' E 004°41'1211.8
2015-Jan-25 11:33N 53°34' E 004°59'1110.9
2015-Jan-25 10:33N 53°38' E 005°16'1010.3
2015-Jan-25 09:33N 53°40' E 005°33'1110.6
2015-Jan-25 08:33N 53°44' E 005°50'1211.0
2015-Jan-25 07:31N 53°47' E 006°08'3311.3
2015-Jan-25 04:33N 53°56' E 007°03'1211.6
2015-Jan-25 03:32N 53°59' E 007°23'1111.1
2015-Jan-25 02:33N 54°01' E 007°40'1110.6
2015-Jan-25 01:33N 54°02' E 007°58'1010.0
2015-Jan-25 00:33N 53°60' E 008°15'1312.9
2015-Jan-24 23:33N 53°57' E 008°37'1312.8
2015-Jan-24 22:33N 53°51' E 008°55'1414.1
2015-Jan-24 21:34N 53°51' E 009°19'1414.4
2015-Jan-24 20:33N 53°39' E 009°31'1312.8
2015-Jan-24 19:33N 53°33' E 009°51'3 2.9
2015-Jan-24 18:31N 53°32' E 009°55'0 0.0
2015-Jan-24 17:33N 53°32' E 009°55'0 0.0
2015-Jan-24 16:33N 53°32' E 009°55'0 0.0
2015-Jan-24 15:33N 53°32' E 009°55'0 0.0
2015-Jan-24 14:31N 53°32' E 009°55'0 0.0
2015-Jan-24 13:31N 53°32' E 009°55'0 0.0
2015-Jan-24 12:33N 53°32' E 009°55'0 0.0
2015-Jan-24 11:33N 53°32' E 009°55'0 0.0
2015-Jan-24 10:33N 53°32' E 009°55'0 0.0
2015-Jan-24 09:34N 53°32' E 009°55'0 0.0
2015-Jan-24 08:32N 53°32' E 009°55'0 0.0
2015-Jan-24 07:33N 53°32' E 009°55'0 0.0
2015-Jan-24 06:31N 53°32' E 009°55'0 0.0
2015-Jan-24 05:31N 53°32' E 009°55'0 0.0
2015-Jan-24 04:33N 53°32' E 009°55'0 0.0
2015-Jan-24 03:33N 53°32' E 009°55'0 0.0
2015-Jan-24 02:33N 53°32' E 009°55'0 0.0
2015-Jan-24 01:33N 53°32' E 009°55'0 0.0
2015-Jan-24 00:32N 53°32' E 009°55'0 0.0
2015-Jan-23 23:32N 53°32' E 009°55'0 0.0
2015-Jan-23 22:32N 53°32' E 009°55'0 0.0
2015-Jan-23 21:32N 53°32' E 009°55'0 0.0
2015-Jan-23 20:32N 53°32' E 009°55'0 0.0
2015-Jan-23 19:32N 53°32' E 009°55'0 0.0
2015-Jan-23 18:32N 53°32' E 009°55'0 0.0
2015-Jan-23 17:32N 53°32' E 009°55'0 0.0
2015-Jan-23 16:32N 53°32' E 009°55'0 0.0
2015-Jan-23 15:32N 53°32' E 009°55'0 0.0
2015-Jan-23 14:32N 53°32' E 009°55'1 0.7
2015-Jan-23 13:33N 53°32' E 009°54'8 8.1
2015-Jan-23 12:33N 53°34' E 009°41'1110.9
2015-Jan-23 11:34N 53°42' E 009°29'1313.1
2015-Jan-23 10:33N 53°52' E 009°15'10 9.6
2015-Jan-23 09:33N 53°51' E 008°59'1010.3
2015-Jan-23 08:33N 53°53' E 008°42'1212.5
2015-Jan-23 07:33N 53°59' E 008°24'1312.8
2015-Jan-23 06:33N 53°58' E 008°02'1313.2
2015-Jan-23 05:33N 53°56' E 007°40'1813.2
2015-Jan-23 04:10N 53°52' E 007°10'711.2
2015-Jan-23 03:33N 53°50' E 006°58'10 9.9
2015-Jan-23 02:32N 53°48' E 006°42'1010.2
2015-Jan-23 01:33N 53°46' E 006°25'915.4
2015-Jan-23 01:00N 53°42' E 006°12'3 6.2 010 / 71023.310.8 0.5 3.0-3.6 5.0
2015-Jan-23 00:33N 53°43' E 006°08'1111.3
2015-Jan-22 23:34N 53°39' E 005°49'1211.9
2015-Jan-22 22:33N 53°36' E 005°30'1312.5
2015-Jan-22 21:33N 53°32' E 005°10'1312.7
2015-Jan-22 20:34N 53°27' E 004°51'1212.2
2015-Jan-22 19:34N 53°17' E 004°37'1312.7
2015-Jan-22 18:33N 53°06' E 004°27'1312.5
2015-Jan-22 17:33N 52°55' E 004°17'1212.1
2015-Jan-22 16:33N 52°45' E 004°08'1211.8
2015-Jan-22 15:33N 52°35' E 003°56'1212.5
2015-Jan-22 14:33N 52°23' E 003°53'1413.8
2015-Jan-22 13:33N 52°09' E 003°54'9 9.1
2015-Jan-22 12:33N 52°01' E 003°60'1212.3
2015-Jan-22 11:34N 51°54' E 004°17'5 4.8
2015-Jan-22 10:32N 51°53' E 004°24'0 0.0
2015-Jan-22 09:32N 51°53' E 004°24'0 0.0
2015-Jan-22 08:32N 51°53' E 004°24'0 0.0
2015-Jan-22 07:31N 51°53' E 004°24'0 0.0
2015-Jan-22 06:32N 51°53' E 004°24'0 0.0
2015-Jan-22 05:32N 51°53' E 004°24'0 0.0
2015-Jan-22 04:32N 51°53' E 004°24'0 0.0
2015-Jan-22 03:32N 51°53' E 004°24'0 0.0
2015-Jan-22 02:31N 51°53' E 004°24'0 0.0
2015-Jan-22 01:31N 51°53' E 004°24'0 0.0
2015-Jan-22 00:31N 51°53' E 004°24'0 0.0
2015-Jan-21 23:31N 51°53' E 004°24'0 0.0
2015-Jan-21 22:50N 51°53' E 004°24'0 0.0
2015-Jan-21 22:44N 51°53' E 004°24'0 0.0
2015-Jan-21 22:31N 51°53' E 004°24'0 0.0
2015-Jan-21 21:31N 51°53' E 004°24'0 0.0
2015-Jan-21 20:31N 51°53' E 004°24'0 0.0
2015-Jan-21 19:31N 51°53' E 004°24'0 0.0
2015-Jan-21 18:31N 51°53' E 004°24'0 0.0
2015-Jan-21 17:32N 51°53' E 004°24'0 0.0
2015-Jan-21 16:31N 51°53' E 004°24'0 0.0
2015-Jan-21 15:32N 51°53' E 004°24'0 0.0
2015-Jan-21 14:31N 51°53' E 004°24'  
Track history (hours):
 
Tides and Currents Weather Stations Pressure Air Temp Water Temp Dewpoint Dewpoint Depression Visibility Wind Speed Wind Dir Waves Ship Positions

Maersk Dayton

Last reported at 2015-Jan-31 14:00 UTC. Time now 2015-Jan-31 16:16 UTC.
Position N 44°12' W 015°12'.

Length 281 m; beam 32.2 m; draft 12.5 m.

Type: Ship (hazmat cat A). MMSI: 218024000.

Wind from 350 at 22 knots

Waves 3.5 meters (11 feet), 3 second period

Barometer 1019.0 mb
Air temperature 12.3 ° C
Visibility: greater than 5.4 NM
Dewpoint -2.3 ° C
Water temperature 12.5 ° C

Date/timePositionNaut miles runAvg speedWind from/ knotsBaromVisibWave heightAir tempDewpointWater temp
2015-Jan-31 14:00N 44°12' W 015°12'5217.4 350 / 221019.0 5.4 3.512.3-2.312.5
2015-Jan-31 11:00N 44°42' W 014°12'22317.2 310 / 301016.0 5.4 3.510.5 1.912.5
2015-Jan-30 22:00N 46°48' W 009°48'36415.3 310 / 30995.5 5.4 3.510.0 2.611.7
2015-Jan-29 22:17N 50°09' W 002°10'1814.2
2015-Jan-29 21:00N 50°06' W 001°42'3523.5 290 / 40980.5 5.4 4.0 6.5-0.6 9.7
2015-Jan-29 19:29N 50°19' W 000°50'1717.6
2015-Jan-29 18:29N 50°23' W 000°24'1816.9
2015-Jan-29 17:27N 50°28' E 000°03'1516.5
2015-Jan-29 16:33N 50°33' E 000°25'1716.9
2015-Jan-29 15:34N 50°42' E 000°47'1818.0
2015-Jan-29 14:33N 50°53' E 001°09'1615.8
2015-Jan-29 13:33N 51°06' E 001°23'1313.2
2015-Jan-29 12:34N 51°12' E 001°43'1717.1
2015-Jan-29 11:34N 51°25' E 001°59'1716.5
2015-Jan-29 10:33N 51°22' E 002°25'1616.0
2015-Jan-29 09:33N 51°25' E 002°50'1515.0
2015-Jan-29 08:34N 51°25' E 003°14'1414.1
2015-Jan-29 07:33N 51°26' E 003°37'6 6.4
2015-Jan-29 06:34N 51°22' E 003°45'10 9.7
2015-Jan-29 05:33N 51°26' E 003°59'10 9.5
2015-Jan-29 04:33N 51°22' E 004°13'5 4.9
2015-Jan-29 03:32N 51°18' E 004°16'0 0.0
2015-Jan-29 02:32N 51°18' E 004°16'0 0.0
2015-Jan-29 01:32N 51°18' E 004°16'0 0.0
2015-Jan-29 00:23N 51°18' E 004°16'0 0.0
2015-Jan-28 23:30N 51°18' E 004°16'0 0.0
2015-Jan-28 22:22N 51°18' E 004°16'0 0.0
2015-Jan-28 21:31N 51°18' E 004°16'0 0.0
2015-Jan-28 20:32N 51°18' E 004°16'0 0.0
2015-Jan-28 19:31N 51°18' E 004°16'0 0.0
2015-Jan-28 18:31N 51°18' E 004°16'0 0.0
2015-Jan-28 17:24N 51°18' E 004°16'0 0.0
2015-Jan-28 16:31N 51°18' E 004°16'0 0.0
2015-Jan-28 15:31N 51°18' E 004°16'0 0.0
2015-Jan-28 14:33N 51°18' E 004°16'0 0.0
2015-Jan-28 13:31N 51°18' E 004°16'0 0.0
2015-Jan-28 12:31N 51°18' E 004°16'0 0.0
2015-Jan-28 11:26N 51°18' E 004°16'0 0.0
2015-Jan-28 10:33N 51°18' E 004°16'0 0.0
2015-Jan-28 09:33N 51°18' E 004°16'0 0.0
2015-Jan-28 08:33N 51°18' E 004°16'0 0.0
2015-Jan-28 07:33N 51°18' E 004°16'7 6.9
2015-Jan-28 06:33N 51°24' E 004°11'8 8.4
2015-Jan-28 05:33N 51°24' E 003°57'10 9.5
2015-Jan-28 04:34N 51°25' E 003°42'1010.0
2015-Jan-28 03:33N 51°25' E 003°26'1111.0
2015-Jan-28 02:33N 51°24' E 003°09'9 9.5
2015-Jan-28 01:33N 51°22' E 002°54'8 7.9
2015-Jan-28 00:33N 51°24' E 002°41'1 1.4
2015-Jan-27 23:31N 51°25' E 002°40'0 0.0
2015-Jan-27 22:31N 51°25' E 002°40'0 0.0
2015-Jan-27 21:31N 51°25' E 002°40'0 0.0
2015-Jan-27 20:31N 51°25' E 002°40'0 0.0
2015-Jan-27 19:31N 51°25' E 002°40'0 0.0
2015-Jan-27 18:31N 51°25' E 002°40'0 0.0
2015-Jan-27 17:28N 51°25' E 002°40'0 0.1
2015-Jan-27 16:25N 51°25' E 002°40'0 0.1
2015-Jan-27 15:31N 51°25' E 002°40'0 0.1
2015-Jan-27 14:31N 51°25' E 002°40'0 0.0
2015-Jan-27 13:31N 51°25' E 002°40'0 0.0
2015-Jan-27 12:31N 51°25' E 002°40'0 0.0
2015-Jan-27 11:31N 51°25' E 002°40'0 0.1
2015-Jan-27 10:31N 51°25' E 002°40'0 0.0
2015-Jan-27 09:31N 51°25' E 002°40'0 0.1
2015-Jan-27 08:28N 51°25' E 002°40'0 0.1
2015-Jan-27 07:31N 51°25' E 002°40'1 0.6
2015-Jan-27 06:31N 51°25' E 002°41'7 6.7
2015-Jan-27 05:31N 51°22' E 002°31'1111.4
2015-Jan-27 04:33N 51°18' E 002°15'1110.6
2015-Jan-27 03:34N 51°22' E 001°59'1211.7
2015-Jan-27 02:33N 51°32' E 001°50'1312.6
2015-Jan-27 01:34N 51°45' E 001°44'8 8.4
2015-Jan-27 00:33N 51°51' E 001°35'1111.2
2015-Jan-26 23:33N 51°41' E 001°27'1615.7
2015-Jan-26 22:33N 51°32' E 001°06'1716.8
2015-Jan-26 21:33N 51°30' E 000°39'6 5.8
2015-Jan-26 20:33N 51°30' E 000°30'0 0.0
2015-Jan-26 19:33N 51°30' E 000°30'0 0.0
2015-Jan-26 18:33N 51°30' E 000°30'0 0.0
2015-Jan-26 17:33N 51°30' E 000°30'0 0.0
2015-Jan-26 16:34N 51°30' E 000°30'0 0.0
2015-Jan-26 15:32N 51°30' E 000°30'0 0.0
2015-Jan-26 14:33N 51°30' E 000°30'0 0.0
2015-Jan-26 13:33N 51°30' E 000°30'0 0.0
2015-Jan-26 12:33N 51°30' E 000°30'0 0.0
2015-Jan-26 11:30N 51°30' E 000°30'0 0.0
2015-Jan-26 10:32N 51°30' E 000°30'0 0.0
2015-Jan-26 09:32N 51°30' E 000°30'0 0.0
2015-Jan-26 08:34N 51°30' E 000°30'0 0.0
2015-Jan-26 07:34N 51°30' E 000°30'0 0.0
2015-Jan-26 06:34N 51°30' E 000°30'2 1.6
2015-Jan-26 05:34N 51°30' E 000°32'1010.2
2015-Jan-26 04:33N 51°29' E 000°49'1514.8
2015-Jan-26 03:33N 51°34' E 001°11'1716.8
2015-Jan-26 02:33N 51°45' E 001°31'1110.7
2015-Jan-26 01:33N 51°53' E 001°43'1110.9
2015-Jan-26 00:32N 52°02' E 001°54'1212.0
2015-Jan-25 23:33N 52°10' E 002°07'1711.4
2015-Jan-25 22:04N 52°23' E 002°26'612.0
2015-Jan-25 21:33N 52°27' E 002°32'5710.7
2015-Jan-25 16:14N 52°56' E 003°53'812.0
2015-Jan-25 15:33N 53°01' E 004°04'1212.1
2015-Jan-25 14:33N 53°08' E 004°21'1812.2
2015-Jan-25 13:07N 53°24' E 004°34'611.5
2015-Jan-25 12:33N 53°29' E 004°41'1211.8
2015-Jan-25 11:33N 53°34' E 004°59'1110.9
2015-Jan-25 10:33N 53°38' E 005°16'1010.3
2015-Jan-25 09:33N 53°40' E 005°33'1110.6
2015-Jan-25 08:33N 53°44' E 005°50'1211.0
2015-Jan-25 07:31N 53°47' E 006°08'3311.3
2015-Jan-25 04:33N 53°56' E 007°03'1211.6
2015-Jan-25 03:32N 53°59' E 007°23'1111.1
2015-Jan-25 02:33N 54°01' E 007°40'1110.6
2015-Jan-25 01:33N 54°02' E 007°58'1010.0
2015-Jan-25 00:33N 53°60' E 008°15'1312.9
2015-Jan-24 23:33N 53°57' E 008°37'1312.8
2015-Jan-24 22:33N 53°51' E 008°55'1414.1
2015-Jan-24 21:34N 53°51' E 009°19'1414.4
2015-Jan-24 20:33N 53°39' E 009°31'1312.8
2015-Jan-24 19:33N 53°33' E 009°51'3 2.9
2015-Jan-24 18:31N 53°32' E 009°55'0 0.0
2015-Jan-24 17:33N 53°32' E 009°55'0 0.0
2015-Jan-24 16:33N 53°32' E 009°55'0 0.0
2015-Jan-24 15:33N 53°32' E 009°55'0 0.0
2015-Jan-24 14:31N 53°32' E 009°55'0 0.0
2015-Jan-24 13:31N 53°32' E 009°55'0 0.0
2015-Jan-24 12:33N 53°32' E 009°55'0 0.0
2015-Jan-24 11:33N 53°32' E 009°55'0 0.0
2015-Jan-24 10:33N 53°32' E 009°55'0 0.0
2015-Jan-24 09:34N 53°32' E 009°55'0 0.0
2015-Jan-24 08:32N 53°32' E 009°55'0 0.0
2015-Jan-24 07:33N 53°32' E 009°55'0 0.0
2015-Jan-24 06:31N 53°32' E 009°55'0 0.0
2015-Jan-24 05:31N 53°32' E 009°55'0 0.0
2015-Jan-24 04:33N 53°32' E 009°55'0 0.0
2015-Jan-24 03:33N 53°32' E 009°55'0 0.0
2015-Jan-24 02:33N 53°32' E 009°55'0 0.0
2015-Jan-24 01:33N 53°32' E 009°55'0 0.0
2015-Jan-24 00:32N 53°32' E 009°55'0 0.0
2015-Jan-23 23:32N 53°32' E 009°55'0 0.0
2015-Jan-23 22:32N 53°32' E 009°55'0 0.0
2015-Jan-23 21:32N 53°32' E 009°55'0 0.0
2015-Jan-23 20:32N 53°32' E 009°55'0 0.0
2015-Jan-23 19:32N 53°32' E 009°55'0 0.0
2015-Jan-23 18:32N 53°32' E 009°55'0 0.0
2015-Jan-23 17:32N 53°32' E 009°55'0 0.0
2015-Jan-23 16:32N 53°32' E 009°55'0 0.0
2015-Jan-23 15:32N 53°32' E 009°55'0 0.0
2015-Jan-23 14:32N 53°32' E 009°55'1 0.7
2015-Jan-23 13:33N 53°32' E 009°54'8 8.1
2015-Jan-23 12:33N 53°34' E 009°41'1110.9
2015-Jan-23 11:34N 53°42' E 009°29'1313.1
2015-Jan-23 10:33N 53°52' E 009°15'10 9.6
2015-Jan-23 09:33N 53°51' E 008°59'1010.3
2015-Jan-23 08:33N 53°53' E 008°42'1212.5
2015-Jan-23 07:33N 53°59' E 008°24'1312.8
2015-Jan-23 06:33N 53°58' E 008°02'1313.2
2015-Jan-23 05:33N 53°56' E 007°40'1813.2
2015-Jan-23 04:10N 53°52' E 007°10'711.2
2015-Jan-23 03:33N 53°50' E 006°58'10 9.9
2015-Jan-23 02:32N 53°48' E 006°42'1010.2
2015-Jan-23 01:33N 53°46' E 006°25'915.4
2015-Jan-23 01:00N 53°42' E 006°12'3 6.2 010 / 71023.310.8 0.5 3.0-3.6 5.0
2015-Jan-23 00:33N 53°43' E 006°08'1111.3
2015-Jan-22 23:34N 53°39' E 005°49'1211.9
2015-Jan-22 22:33N 53°36' E 005°30'1312.5
2015-Jan-22 21:33N 53°32' E 005°10'1312.7
2015-Jan-22 20:34N 53°27' E 004°51'1212.2
2015-Jan-22 19:34N 53°17' E 004°37'1312.7
2015-Jan-22 18:33N 53°06' E 004°27'1312.5
2015-Jan-22 17:33N 52°55' E 004°17'1212.1
2015-Jan-22 16:33N 52°45' E 004°08'1211.8
2015-Jan-22 15:33N 52°35' E 003°56'1212.5
2015-Jan-22 14:33N 52°23' E 003°53'1413.8
2015-Jan-22 13:33N 52°09' E 003°54'9 9.1
2015-Jan-22 12:33N 52°01' E 003°60'1212.3
2015-Jan-22 11:34N 51°54' E 004°17'5 4.8
2015-Jan-22 10:32N 51°53' E 004°24'0 0.0
2015-Jan-22 09:32N 51°53' E 004°24'0 0.0
2015-Jan-22 08:32N 51°53' E 004°24'0 0.0
2015-Jan-22 07:31N 51°53' E 004°24'0 0.0
2015-Jan-22 06:32N 51°53' E 004°24'0 0.0
2015-Jan-22 05:32N 51°53' E 004°24'0 0.0
2015-Jan-22 04:32N 51°53' E 004°24'0 0.0
2015-Jan-22 03:32N 51°53' E 004°24'0 0.0
2015-Jan-22 02:31N 51°53' E 004°24'0 0.0
2015-Jan-22 01:31N 51°53' E 004°24'0 0.0
2015-Jan-22 00:31N 51°53' E 004°24'0 0.0
2015-Jan-21 23:31N 51°53' E 004°24'0 0.0
2015-Jan-21 22:50N 51°53' E 004°24'0 0.0
2015-Jan-21 22:44N 51°53' E 004°24'0 0.0
2015-Jan-21 22:31N 51°53' E 004°24'0 0.0
2015-Jan-21 21:31N 51°53' E 004°24'0 0.0
2015-Jan-21 20:31N 51°53' E 004°24'0 0.0
2015-Jan-21 19:31N 51°53' E 004°24'0 0.0
2015-Jan-21 18:31N 51°53' E 004°24'0 0.0
2015-Jan-21 17:32N 51°53' E 004°24'0 0.0
2015-Jan-21 16:31N 51°53' E 004°24'0 0.0
2015-Jan-21 15:32N 51°53' E 004°24'0 0.0
2015-Jan-21 14:31N 51°53' E 004°24'  

Dump ship's entire track history